»·PEaware :: N5282W A39-KBXK

N5282W :: A39-KBXK

FLIGHT INFORMATION

Flight Status: Arrived
Operator: Privately registered:
United States
More flights under this callsign
Pilot: Johnathan W. (18601)
Aircraft: PIPER PA-28 CHEROKEE ARCHER
(PA28)
More flights by this aircraft type
Origin: A39 Ak-Chin Regional
United States
Destination: KBXK Buckeye Mun
United States
More flights between these airports :: More routes between these airports
Route: KCGZ ECLPS VPREN LAKEY 18AZ P48
File this flight plan on PilotEdge
Remarks:
Altitude:
(Current/Filed)
10,500ft
Speed:
(Current/Filed)
115kts
Departed: 23-Mar-18 03:03 PM
Arrived: 23-Mar-18 04:13 PM
Distance/Time
Traveled:
383nm/1:10
Distance/Time
To Go:
Arrived

Flight Plot

Page will automatically refresh every two minutes.

Flight plan parsing failed; only flown route is shown


Map Options




Map Legend


Flown Route
Filed Route
Departure Airport
Arrival Airport
Navaid (VOR, NDB)
Fix

Horizontal Profiles

Position Reports

Time Latitude Longitude Heading Altitude Ground
Speed
23-Mar-18 14:49 32.992238 -111.918707 220 1293ft 0kts
23-Mar-18 14:50 32.992238 -111.918707 220 1293ft 0kts
23-Mar-18 14:51 32.992238 -111.918707 220 1293ft 0kts
23-Mar-18 14:52 32.992238 -111.918707 220 1293ft 0kts
23-Mar-18 14:53 32.992238 -111.918707 220 1293ft 0kts
23-Mar-18 14:54 32.992211 -111.918746 240 1293ft 2kts
23-Mar-18 14:55 32.992641 -111.918632 42 1294ft 4kts
23-Mar-18 14:56 32.993174 -111.918078 40 1295ft 2kts
23-Mar-18 14:57 32.993355 -111.917895 40 1295ft 1kts
23-Mar-18 14:58 32.996262 -111.914812 41 1304ft 20kts
23-Mar-18 14:59 32.997263 -111.913903 6 1305ft 0kts
23-Mar-18 15:00 32.997262 -111.913903 6 1305ft 0kts
23-Mar-18 15:01 32.997693 -111.913939 342 1306ft 9kts
23-Mar-18 15:02 32.989894 -111.922322 223 1445ft 76kts
23-Mar-18 15:03 32.973032 -111.934755 144 2139ft 88kts
23-Mar-18 15:04 32.965485 -111.914799 100 2627ft 101kts
23-Mar-18 15:05 32.962963 -111.884809 99 3184ft 101kts
23-Mar-18 15:06 32.959254 -111.850403 106 3761ft 110kts
23-Mar-18 15:07 32.957209 -111.815020 108 4564ft 109kts
23-Mar-18 15:08 32.951257 -111.779957 103 5368ft 111kts
23-Mar-18 15:09 32.949587 -111.742973 88 6132ft 118kts
23-Mar-18 15:10 32.963171 -111.706911 72 6864ft 122kts
23-Mar-18 15:11 32.979641 -111.672339 60 7588ft 124kts
23-Mar-18 15:12 32.996941 -111.637211 46 8256ft 126kts
23-Mar-18 15:13 33.018432 -111.603668 61 8777ft 131kts
23-Mar-18 15:14 33.036846 -111.566071 52 9345ft 131kts
23-Mar-18 15:15 33.060512 -111.528344 49 9554ft 147kts
23-Mar-18 15:16 33.091042 -111.494808 28 9535ft 150kts
23-Mar-18 15:17 33.125744 -111.470983 20 9628ft 145kts
23-Mar-18 15:18 33.160162 -111.444623 27 9647ft 149kts
23-Mar-18 15:19 33.196635 -111.434244 0 9660ft 0kts
23-Mar-18 15:20 33.234778 -111.435600 351 9567ft 142kts
23-Mar-18 15:21 33.272359 -111.444362 329 9466ft 134kts
23-Mar-18 15:22 33.305773 -111.463926 322 9356ft 132kts
23-Mar-18 15:23 33.337433 -111.485597 314 9336ft 125kts
23-Mar-18 15:24 33.365643 -111.502576 335 9929ft 109kts
23-Mar-18 15:25 33.394740 -111.514128 321 10346ft 108kts
23-Mar-18 15:26 33.420189 -111.533940 306 10680ft 110kts
23-Mar-18 15:27 33.442750 -111.564415 301 10639ft 121kts
23-Mar-18 15:28 33.464278 -111.595193 316 10711ft 131kts
23-Mar-18 15:29 33.494535 -111.620952 312 10649ft 133kts
23-Mar-18 15:30 33.521533 -111.649011 311 10672ft 133kts
23-Mar-18 15:31 33.550537 -111.678011 311 10498ft 138kts
23-Mar-18 15:32 33.573024 -111.702695 307 10525ft 129kts
23-Mar-18 15:33 33.601798 -111.729236 317 10457ft 130kts
23-Mar-18 15:34 33.636651 -111.758661 316 10318ft 128kts
23-Mar-18 15:35 33.659915 -111.779357 319 10398ft 121kts
23-Mar-18 15:36 33.688232 -111.800271 318 10562ft 118kts
23-Mar-18 15:37 33.724878 -111.825756 318 10386ft 121kts
23-Mar-18 15:38 33.753575 -111.847309 320 10448ft 122kts
23-Mar-18 15:39 33.778902 -111.864491 322 10410ft 126kts
23-Mar-18 15:40 33.805667 -111.890435 306 10376ft 124kts
23-Mar-18 15:41 33.821276 -111.925846 282 10331ft 119kts
23-Mar-18 15:42 33.822723 -111.962812 268 10569ft 104kts
23-Mar-18 15:43 33.826987 -111.997930 264 10651ft 106kts
23-Mar-18 15:44 33.819439 -112.032649 253 10634ft 107kts
23-Mar-18 15:45 33.812478 -112.067585 256 10634ft 107kts
23-Mar-18 15:46 33.807752 -112.102810 259 10664ft 106kts
23-Mar-18 15:47 33.806971 -112.138852 268 10666ft 108kts
23-Mar-18 15:48 33.806938 -112.175032 265 10661ft 109kts
23-Mar-18 15:49 33.800635 -112.210121 248 10617ft 109kts
23-Mar-18 15:50 33.789205 -112.243209 241 10631ft 107kts
23-Mar-18 15:51 33.771017 -112.272198 226 10384ft 112kts
23-Mar-18 15:52 33.746892 -112.297041 227 9971ft 115kts
23-Mar-18 15:53 33.728873 -112.328174 239 9623ft 112kts
23-Mar-18 15:54 33.709703 -112.359249 229 9080ft 118kts
23-Mar-18 15:55 33.690570 -112.390968 227 8589ft 116kts
23-Mar-18 15:56 33.667972 -112.419246 228 8073ft 117kts
23-Mar-18 15:57 33.647409 -112.446878 230 7832ft 104kts
23-Mar-18 15:58 33.628279 -112.472020 232 7782ft 103kts
23-Mar-18 15:59 33.607479 -112.495690 224 7631ft 103kts
23-Mar-18 16:00 33.588449 -112.519808 230 7476ft 100kts
23-Mar-18 16:01 33.569004 -112.542462 226 7369ft 95kts
23-Mar-18 16:02 33.548863 -112.563903 224 7160ft 97kts
23-Mar-18 16:03 33.525284 -112.581297 210 6891ft 103kts
23-Mar-18 16:04 33.497322 -112.596995 207 6763ft 125kts
23-Mar-18 16:05 33.463415 -112.614217 207 5927ft 135kts
23-Mar-18 16:06 33.433101 -112.639481 219 4972ft 135kts
23-Mar-18 16:07 33.417323 -112.677772 258 3437ft 131kts
23-Mar-18 16:08 33.415963 -112.716048 269 2738ft 94kts
23-Mar-18 16:09 33.412159 -112.720165 56 2332ft 118kts
23-Mar-18 16:10 33.436359 -112.699249 356 1950ft 99kts
23-Mar-18 16:11 33.438563 -112.686109 170 1531ft 69kts
23-Mar-18 16:12 33.423934 -112.686092 139 1013ft 15kts
23-Mar-18 16:13 33.423755 -112.684832 168 1013ft 15kts
23-Mar-18 16:14 33.420191 -112.683694 117 1006ft 10kts
23-Mar-18 16:15 33.420161 -112.683344 56 1006ft 0kts
23-Mar-18 16:18 35.437597 -119.055127 139 502ft 0kts
23-Mar-18 16:19 35.437597 -119.055127 139 502ft 0kts
23-Mar-18 16:20 35.437597 -119.055127 139 502ft 0kts
23-Mar-18 16:21 35.437597 -119.055127 139 502ft 0kts
23-Mar-18 16:22 35.437597 -119.055127 139 502ft 0kts
23-Mar-18 16:23 35.437597 -119.055127 139 502ft 0kts
23-Mar-18 16:24 35.437597 -119.055127 139 502ft 0kts
23-Mar-18 16:25 35.437597 -119.055127 139 502ft 0kts
23-Mar-18 16:26 35.437597 -119.055127 139 502ft 0kts

Navigation Log

Ident Type
Flight plan parsing failed, navigation log unavailable